Time;durP1;ratioP1;P1;durP2;ratioP2;P2;SDS_P1;SDS_P2;PMS_P1;PMS_P2;Temp;Humidity;BMP_temperature;BMP_pressure;BME280_temperature;BME280_humidity;BME280_pressure;Samples;Min_cycle;Max_cycle;Signal;HPM_P1;HPM_P2
2022/04/22 00:00:51;;;;;;;11.90;6.10;;;13.00;99.90;;;;;;5042059;28;20566;-66
2022/04/22 00:03:20;;;;;;;8.73;5.70;;;13.10;99.90;;;;;;5044275;28;20612;-65
2022/04/22 00:05:50;;;;;;;7.83;5.90;;;13.10;99.90;;;;;;5033420;28;20869;-65
2022/04/22 00:08:21;;;;;;;8.77;5.57;;;13.10;99.90;;;;;;5041072;28;20228;-65
2022/04/22 00:13:35;;;;;;;5.53;5.13;;;13.00;99.90;;;;;;5041042;28;20541;-65
2022/04/22 00:16:04;;;;;;;6.80;5.23;;;13.00;99.90;;;;;;5043747;28;20625;-65
2022/04/22 00:18:33;;;;;;;9.37;5.70;;;13.10;99.90;;;;;;5036728;28;20793;-65
2022/04/22 00:21:03;;;;;;;11.07;5.87;;;13.10;99.90;;;;;;5038497;28;20710;-65
2022/04/22 00:23:32;;;;;;;6.80;5.20;;;13.00;99.90;;;;;;5037261;28;20205;-65
2022/04/22 00:26:00;;;;;;;8.07;5.00;;;13.00;99.90;;;;;;5042741;28;20638;-65
2022/04/22 00:28:28;;;;;;;8.63;5.40;;;12.90;99.90;;;;;;5035803;28;20709;-64
2022/04/22 00:30:57;;;;;;;6.70;5.43;;;12.90;99.90;;;;;;5038622;28;20658;-65
2022/04/22 00:33:26;;;;;;;9.17;5.80;;;12.90;99.90;;;;;;5039835;28;20722;-65
2022/04/22 00:35:54;;;;;;;6.23;5.40;;;12.80;99.90;;;;;;5034103;28;20757;-65
2022/04/22 00:38:24;;;;;;;7.43;5.90;;;12.80;99.90;;;;;;5034028;28;20280;-65
2022/04/22 00:40:55;;;;;;;7.17;5.57;;;12.70;99.90;;;;;;5040611;28;20211;-65
2022/04/22 00:43:25;;;;;;;5.73;5.23;;;12.60;99.90;;;;;;5041094;28;20231;-64
2022/04/22 00:45:55;;;;;;;8.30;5.23;;;12.60;99.90;;;;;;5042633;28;20647;-65
2022/04/22 00:48:24;;;;;;;10.77;5.57;;;12.50;99.90;;;;;;5044838;28;20398;-65
2022/04/22 00:50:53;;;;;;;8.83;5.77;;;12.40;99.90;;;;;;5037708;28;20235;-65
2022/04/22 00:53:21;;;;;;;5.87;5.37;;;12.30;99.90;;;;;;5038900;28;20203;-65
2022/04/22 00:55:53;;;;;;;5.77;5.10;;;12.30;99.90;;;;;;5040533;28;20219;-65
2022/04/22 00:58:21;;;;;;;8.57;5.63;;;12.10;99.90;;;;;;5041550;28;20204;-65
2022/04/22 01:00:50;;;;;;;8.20;5.50;;;12.00;99.90;;;;;;5035231;28;20209;-65
2022/04/22 01:03:18;;;;;;;6.13;5.47;;;11.90;99.90;;;;;;5034256;28;20185;-66
2022/04/22 01:11:37;;;;;;;12.90;5.87;;;11.70;99.90;;;;;;5016862;28;20209;-65
2022/04/22 01:14:07;;;;;;;9.80;5.83;;;11.60;99.90;;;;;;5004090;28;20575;-65
2022/04/22 01:16:36;;;;;;;7.90;5.70;;;11.60;99.90;;;;;;5027478;28;20469;-64
2022/04/22 01:19:04;;;;;;;8.80;5.77;;;11.50;99.90;;;;;;5036028;28;20698;-64
2022/04/22 01:21:34;;;;;;;6.53;5.87;;;11.50;99.90;;;;;;5033675;28;20209;-66
2022/04/22 01:24:02;;;;;;;7.20;5.87;;;11.40;99.90;;;;;;5042801;28;20197;-65
2022/04/22 01:26:31;;;;;;;6.17;5.60;;;11.40;99.90;;;;;;5040861;28;20201;-65
2022/04/22 01:29:01;;;;;;;7.40;5.57;;;11.30;99.90;;;;;;5041408;28;20201;-66
2022/04/22 01:31:29;;;;;;;6.70;6.10;;;11.20;99.90;;;;;;5039369;28;20505;-65
2022/04/22 01:33:58;;;;;;;10.00;6.60;;;11.20;99.90;;;;;;5038738;28;20255;-65
2022/04/22 01:36:27;;;;;;;9.17;6.50;;;11.10;99.90;;;;;;5034132;28;20235;-65
2022/04/22 01:38:57;;;;;;;7.90;6.30;;;11.10;99.90;;;;;;5042608;28;20232;-65
2022/04/22 01:41:27;;;;;;;12.80;6.27;;;11.10;99.90;;;;;;5042405;28;20205;-65
2022/04/22 01:43:55;;;;;;;7.33;6.63;;;11.00;99.90;;;;;;5040192;28;20280;-65
2022/04/22 01:46:24;;;;;;;9.83;6.67;;;10.90;99.90;;;;;;5037734;28;20193;-66
2022/04/22 01:48:55;;;;;;;9.03;6.73;;;10.90;99.90;;;;;;5039129;28;20228;-65
2022/04/22 01:51:23;;;;;;;9.77;6.40;;;10.90;99.90;;;;;;5054908;28;20197;-66
2022/04/22 01:53:52;;;;;;;7.00;6.40;;;10.80;99.90;;;;;;5042341;28;20195;-66
2022/04/22 01:56:22;;;;;;;7.83;6.73;;;10.80;99.90;;;;;;5034901;28;20208;-65
2022/04/22 01:58:50;;;;;;;7.97;6.73;;;10.80;99.90;;;;;;5043145;28;20235;-65
2022/04/22 02:01:19;;;;;;;10.60;6.90;;;10.70;99.90;;;;;;5039306;28;20214;-65
2022/04/22 02:03:47;;;;;;;9.17;7.23;;;10.70;99.90;;;;;;5037299;28;20193;-65
2022/04/22 02:06:15;;;;;;;7.80;6.83;;;10.70;99.90;;;;;;5042255;28;20215;-66
2022/04/22 02:08:44;;;;;;;9.03;6.53;;;10.60;99.90;;;;;;5043618;28;20201;-66
2022/04/22 02:11:13;;;;;;;10.77;7.20;;;10.50;99.90;;;;;;5038331;28;20193;-66
2022/04/22 02:13:42;;;;;;;7.30;6.57;;;10.50;99.90;;;;;;5046590;28;20563;-65
2022/04/22 02:16:11;;;;;;;11.20;7.03;;;10.50;99.90;;;;;;5037579;28;20209;-65
2022/04/22 02:18:41;;;;;;;9.53;7.20;;;10.40;99.90;;;;;;5048591;28;20202;-66
2022/04/22 02:21:11;;;;;;;10.83;6.90;;;10.40;99.90;;;;;;5041778;28;20679;-66
2022/04/22 02:23:40;;;;;;;10.23;7.00;;;10.30;99.90;;;;;;5046370;28;20308;-65
2022/04/22 02:26:08;;;;;;;10.13;7.17;;;10.30;99.90;;;;;;5043105;28;20193;-66
2022/04/22 02:28:36;;;;;;;11.23;8.00;;;10.20;99.90;;;;;;5045858;28;20212;-65
2022/04/22 02:31:07;;;;;;;9.27;7.67;;;10.20;99.90;;;;;;5039476;28;20212;-65
2022/04/22 02:33:38;;;;;;;13.07;7.93;;;10.20;99.90;;;;;;5042804;28;20239;-66
2022/04/22 02:36:07;;;;;;;11.13;7.63;;;10.20;99.90;;;;;;5041795;28;20678;-66
2022/04/22 02:38:36;;;;;;;12.87;8.20;;;10.20;99.90;;;;;;5043518;28;20296;-65
2022/04/22 02:46:38;;;;;;;10.77;8.53;;;10.00;99.90;;;;;;5040447;28;20200;-65
2022/04/22 02:49:07;;;;;;;13.67;8.60;;;10.00;99.90;;;;;;5042290;28;20203;-65
2022/04/22 02:51:35;;;;;;;9.63;8.27;;;10.00;99.90;;;;;;5042366;28;20189;-65
2022/04/22 02:54:04;;;;;;;10.60;8.63;;;9.90;99.90;;;;;;5042865;28;20200;-65
2022/04/22 02:56:32;;;;;;;9.97;8.50;;;9.90;99.90;;;;;;5033981;28;20201;-65
2022/04/22 02:59:02;;;;;;;16.13;9.33;;;9.90;99.90;;;;;;5040838;28;20305;-65
2022/04/22 03:01:31;;;;;;;12.90;9.27;;;9.80;99.90;;;;;;5036184;28;20693;-65
2022/04/22 03:04:01;;;;;;;12.90;9.40;;;9.80;99.90;;;;;;5030573;28;20201;-65
2022/04/22 03:06:30;;;;;;;11.33;8.97;;;9.80;99.90;;;;;;5040684;28;20284;-65
2022/04/22 03:08:58;;;;;;;14.03;9.57;;;9.70;99.90;;;;;;5044270;28;20193;-66
2022/04/22 03:11:27;;;;;;;12.33;9.00;;;9.70;99.90;;;;;;5041299;28;20201;-65
2022/04/22 03:13:56;;;;;;;13.43;9.80;;;9.70;99.90;;;;;;5040810;28;20259;-65
2022/04/22 03:16:27;;;;;;;11.53;10.17;;;9.70;99.90;;;;;;5041465;28;20207;-65
2022/04/22 03:18:56;;;;;;;12.83;9.33;;;9.60;99.90;;;;;;5039414;28;20220;-65
2022/04/22 03:21:26;;;;;;;13.30;9.40;;;9.60;99.90;;;;;;5039785;28;20213;-65
2022/04/22 03:23:56;;;;;;;14.40;10.07;;;9.60;99.90;;;;;;5044726;28;20231;-65
2022/04/22 03:26:25;;;;;;;17.20;10.00;;;9.50;99.90;;;;;;5040224;28;20325;-65
2022/04/22 03:28:57;;;;;;;14.67;9.73;;;9.50;99.90;;;;;;5036529;28;20256;-66
2022/04/22 03:31:26;;;;;;;12.77;10.00;;;9.50;99.90;;;;;;5037211;28;20595;-65
2022/04/22 03:33:54;;;;;;;14.10;10.10;;;9.50;99.90;;;;;;5042295;28;20246;-65
2022/04/22 03:36:22;;;;;;;18.23;10.83;;;9.40;99.90;;;;;;5039072;28;20283;-65
2022/04/22 03:38:52;;;;;;;13.93;10.77;;;9.40;99.90;;;;;;5038451;28;20205;-66
2022/04/22 03:41:20;;;;;;;16.93;11.00;;;9.40;99.90;;;;;;5043209;28;20304;-65
2022/04/22 03:43:49;;;;;;;15.53;10.93;;;9.30;99.90;;;;;;5039011;28;20197;-64
2022/04/22 03:46:17;;;;;;;17.27;11.47;;;9.30;99.90;;;;;;5040942;28;20212;-66
2022/04/22 03:48:46;;;;;;;17.03;11.70;;;9.30;99.90;;;;;;5043045;28;20192;-65
2022/04/22 03:51:15;;;;;;;15.30;10.67;;;9.30;99.90;;;;;;5046001;28;20235;-65
2022/04/22 03:53:46;;;;;;;19.10;11.90;;;9.20;99.90;;;;;;5042704;28;20223;-65
2022/04/22 03:59:02;;;;;;;16.93;12.03;;;9.20;99.90;;;;;;5043387;28;20197;-65
2022/04/22 04:01:30;;;;;;;16.80;11.47;;;9.10;99.90;;;;;;5043501;28;20648;-66
2022/04/22 04:04:36;;;;;;;16.23;11.80;;;9.10;99.90;;;;;;5037305;28;20219;-65
2022/04/22 04:07:43;;;;;;;17.57;11.87;;;9.10;99.90;;;;;;5042721;28;20196;-65
2022/04/22 04:15:59;;;;;;;18.03;12.30;;;9.00;99.90;;;;;;5043074;28;20192;-65
2022/04/22 04:18:29;;;;;;;18.47;12.77;;;9.00;99.90;;;;;;5038652;28;20567;-65
2022/04/22 04:23:45;;;;;;;23.30;13.60;;;8.90;99.90;;;;;;5039792;28;20193;-65
2022/04/22 04:26:15;;;;;;;27.07;13.50;;;8.90;99.90;;;;;;5043165;28;20287;-65
2022/04/22 04:28:47;;;;;;;19.23;13.40;;;8.80;99.90;;;;;;5038085;28;20189;-65
2022/04/22 04:31:16;;;;;;;19.27;13.50;;;8.80;99.90;;;;;;5036783;28;20204;-65
2022/04/22 04:33:45;;;;;;;20.10;13.23;;;8.80;99.90;;;;;;5037507;28;20283;-64
2022/04/22 04:36:17;;;;;;;23.40;14.03;;;8.80;99.90;;;;;;5041574;28;20679;-65
2022/04/22 04:38:45;;;;;;;22.13;13.73;;;8.80;99.90;;;;;;5037095;28;20790;-65
2022/04/22 04:41:14;;;;;;;27.63;14.77;;;8.80;99.90;;;;;;5042647;28;20724;-65
2022/04/22 04:43:44;;;;;;;25.77;14.77;;;8.80;99.90;;;;;;5039232;28;20495;-65
2022/04/22 04:46:12;;;;;;;21.33;14.73;;;8.80;99.90;;;;;;5036967;28;20204;-65
2022/04/22 04:48:41;;;;;;;20.47;14.43;;;8.80;99.90;;;;;;5038539;28;20200;-65
2022/04/22 04:51:09;;;;;;;22.67;15.17;;;8.80;99.90;;;;;;5042171;28;20299;-65
2022/04/22 04:53:37;;;;;;;25.53;15.20;;;8.80;99.90;;;;;;5042449;28;20524;-65
2022/04/22 04:56:06;;;;;;;20.77;15.10;;;8.70;99.90;;;;;;5038187;28;20196;-65
2022/04/22 04:58:34;;;;;;;20.13;15.00;;;8.80;99.90;;;;;;5033756;28;20193;-65
2022/04/22 05:01:04;;;;;;;21.23;14.80;;;8.80;99.90;;;;;;5040465;28;20597;-65
2022/04/22 05:03:32;;;;;;;31.10;15.60;;;8.80;99.90;;;;;;5039407;28;20204;-65
2022/04/22 05:06:02;;;;;;;23.20;15.20;;;8.80;99.90;;;;;;5038993;28;20200;-64
2022/04/22 05:08:30;;;;;;;25.27;15.57;;;8.80;99.90;;;;;;5038130;28;20197;-64
2022/04/22 05:10:59;;;;;;;23.50;16.27;;;8.80;99.90;;;;;;5040117;28;20566;-65
2022/04/22 05:13:27;;;;;;;24.20;14.67;;;8.80;99.90;;;;;;5036509;28;20200;-65
2022/04/22 05:15:57;;;;;;;20.57;15.10;;;8.80;99.90;;;;;;5038507;28;20296;-64
2022/04/22 05:18:27;;;;;;;24.73;17.17;;;8.90;99.90;;;;;;5040502;28;20690;-65
2022/04/22 05:20:55;;;;;;;21.83;15.60;;;8.90;99.90;;;;;;5041333;28;20213;-64
2022/04/22 05:23:23;;;;;;;23.97;17.60;;;8.90;99.90;;;;;;5041564;28;20220;-64
2022/04/22 05:25:51;;;;;;;24.77;16.17;;;8.90;99.90;;;;;;5043115;28;20207;-65
2022/04/22 05:28:20;;;;;;;25.63;16.57;;;9.00;99.90;;;;;;5038251;28;20429;-64
2022/04/22 05:33:36;;;;;;;24.57;15.63;;;9.10;99.90;;;;;;5033762;28;20228;-64
2022/04/22 05:36:06;;;;;;;22.03;15.53;;;9.20;99.90;;;;;;5033870;28;20220;-64
2022/04/22 05:38:34;;;;;;;22.00;15.70;;;9.30;99.90;;;;;;5040078;28;20608;-65
2022/04/22 05:41:03;;;;;;;24.93;15.50;;;9.40;99.90;;;;;;5038604;28;20197;-64
2022/04/22 05:43:31;;;;;;;26.07;16.50;;;9.60;99.90;;;;;;5046885;28;20207;-64
2022/04/22 05:45:59;;;;;;;24.07;16.47;;;9.70;99.90;;;;;;5044853;28;20200;-65
2022/04/22 05:48:28;;;;;;;21.70;15.00;;;9.90;99.90;;;;;;5041268;28;20193;-64
2022/04/22 05:50:57;;;;;;;24.87;16.43;;;10.10;99.90;;;;;;5042942;28;21504;-65
2022/04/22 05:53:26;;;;;;;24.83;15.70;;;10.20;99.90;;;;;;5047160;28;20582;-65
2022/04/22 05:55:54;;;;;;;21.40;15.53;;;10.30;99.90;;;;;;5045070;28;20222;-64
2022/04/22 05:58:22;;;;;;;24.97;15.73;;;10.50;99.90;;;;;;5040461;28;20642;-64
2022/04/22 06:00:50;;;;;;;21.60;14.73;;;10.70;99.90;;;;;;5042699;28;20199;-65
2022/04/22 06:03:23;;;;;;;21.57;14.80;;;10.90;99.90;;;;;;5042721;28;20220;-65
2022/04/22 06:05:51;;;;;;;21.20;14.87;;;11.00;99.90;;;;;;5040982;28;20629;-65
2022/04/22 06:11:07;;;;;;;22.93;14.30;;;11.10;99.90;;;;;;5043916;28;20422;-64
2022/04/22 06:13:35;;;;;;;19.77;14.43;;;11.20;99.90;;;;;;5048007;28;20185;-65
2022/04/22 06:16:03;;;;;;;22.53;14.47;;;11.30;99.90;;;;;;5049521;28;20204;-64
2022/04/22 06:18:32;;;;;;;20.17;14.23;;;11.40;99.90;;;;;;5047562;28;20192;-65
2022/04/22 06:21:00;;;;;;;19.53;14.10;;;11.50;99.90;;;;;;5045208;28;20197;-65
2022/04/22 06:23:29;;;;;;;20.57;13.90;;;11.50;99.90;;;;;;5045073;28;20251;-65
2022/04/22 06:25:58;;;;;;;19.83;14.07;;;11.70;99.90;;;;;;5037735;28;20200;-63
2022/04/22 06:28:26;;;;;;;17.60;13.43;;;11.70;99.90;;;;;;5039517;28;20205;-65
2022/04/22 06:30:55;;;;;;;17.97;13.83;;;11.70;99.90;;;;;;5042340;28;20662;-65
2022/04/22 06:33:24;;;;;;;18.90;13.50;;;11.70;99.90;;;;;;5040101;28;21968;-65
2022/04/22 06:35:52;;;;;;;17.27;12.97;;;11.80;99.90;;;;;;5041477;28;20201;-65
2022/04/22 06:38:21;;;;;;;17.20;12.90;;;12.10;99.90;;;;;;5040949;28;20211;-65
2022/04/22 06:46:25;;;;;;;16.90;12.53;;;12.30;99.90;;;;;;5040318;28;20215;-65
2022/04/22 06:48:53;;;;;;;16.30;13.10;;;12.50;99.90;;;;;;5037061;28;20212;-65
2022/04/22 06:51:23;;;;;;;17.50;13.33;;;12.60;99.90;;;;;;5041176;28;20718;-64
2022/04/22 06:53:52;;;;;;;18.87;13.60;;;12.80;99.90;;;;;;5039417;28;20210;-65
2022/04/22 06:56:27;;;;;;;17.17;13.17;;;12.80;99.90;;;;;;5035339;28;20667;-65
2022/04/22 06:58:56;;;;;;;18.97;13.77;;;12.90;99.90;;;;;;5037756;28;20193;-65
2022/04/22 07:01:25;;;;;;;19.30;13.13;;;13.00;99.90;;;;;;5041170;28;20201;-65
2022/04/22 07:04:12;;;;;;;17.60;13.17;;;13.10;99.90;;;;;;5031788;28;20189;-65
2022/04/22 07:06:42;;;;;;;20.10;12.93;;;13.20;99.90;;;;;;5042028;28;20195;-65
2022/04/22 07:09:11;;;;;;;20.53;12.30;;;13.40;99.90;;;;;;5039846;28;20195;-65
2022/04/22 07:11:42;;;;;;;16.13;12.77;;;13.70;99.90;;;;;;5042829;28;20284;-65
2022/04/22 07:14:12;;;;;;;21.87;13.17;;;13.90;99.90;;;;;;5036377;28;20292;-65
2022/04/22 07:16:45;;;;;;;17.07;12.03;;;13.90;99.90;;;;;;5041751;28;20197;-65
2022/04/22 07:19:14;;;;;;;14.77;11.40;;;13.80;99.90;;;;;;5040182;28;20204;-65
2022/04/22 07:21:42;;;;;;;21.90;13.10;;;13.80;99.90;;;;;;5038401;28;20192;-66
2022/04/22 07:24:11;;;;;;;17.77;12.20;;;14.10;99.90;;;;;;5037323;28;20696;-66
2022/04/22 07:26:44;;;;;;;16.00;12.13;;;14.30;99.90;;;;;;5037541;28;20192;-66
2022/04/22 07:29:15;;;;;;;14.33;12.07;;;14.50;99.90;;;;;;5040940;28;20279;-66
2022/04/22 07:31:44;;;;;;;17.37;12.10;;;14.60;99.90;;;;;;5043124;28;20184;-66
2022/04/22 07:34:12;;;;;;;14.97;11.70;;;14.60;99.90;;;;;;5042780;28;20894;-66
2022/04/22 07:36:42;;;;;;;17.23;12.63;;;14.70;99.90;;;;;;5041226;28;20194;-66
2022/04/22 07:39:12;;;;;;;15.90;11.47;;;14.70;99.90;;;;;;5035183;28;20721;-65
2022/04/22 07:41:43;;;;;;;18.63;12.90;;;14.70;99.90;;;;;;5040775;28;20194;-65
2022/04/22 07:47:02;;;;;;;15.23;11.93;;;14.70;99.90;;;;;;5040534;28;20248;-65
2022/04/22 07:49:32;;;;;;;19.97;12.77;;;14.90;99.90;;;;;;5038112;28;20201;-65
2022/04/22 07:52:00;;;;;;;15.90;11.77;;;15.20;99.90;;;;;;5040166;28;20243;-65
2022/04/22 07:54:28;;;;;;;14.23;11.57;;;15.40;99.90;;;;;;5042281;28;20233;-66
2022/04/22 07:56:58;;;;;;;16.87;11.97;;;15.50;99.90;;;;;;5042384;28;20441;-66
2022/04/22 07:59:28;;;;;;;16.70;12.80;;;15.50;99.90;;;;;;5045043;28;20194;-66
2022/04/22 08:01:58;;;;;;;17.57;12.17;;;15.70;99.90;;;;;;5045664;28;20232;-66
2022/04/22 08:04:28;;;;;;;16.47;12.67;;;16.00;99.90;;;;;;5046315;28;20551;-65
2022/04/22 08:06:56;;;;;;;14.83;11.73;;;15.90;99.90;;;;;;5044074;28;20211;-66
2022/04/22 08:09:46;;;;;;;16.87;12.60;;;16.10;99.90;;;;;;5041382;28;20208;-65
2022/04/22 08:12:19;;;;;;;16.80;11.67;;;16.10;99.90;;;;;;5043020;28;20208;-66
2022/04/22 08:14:48;;;;;;;15.23;11.73;;;16.30;99.90;;;;;;5040128;28;20205;-66
2022/04/22 08:17:16;;;;;;;18.60;11.63;;;16.40;99.90;;;;;;5040721;28;21062;-66
2022/04/22 08:19:46;;;;;;;16.70;12.80;;;16.90;99.90;;;;;;5036254;28;20212;-65
2022/04/22 08:22:15;;;;;;;16.70;12.50;;;17.40;99.90;;;;;;5035529;28;20696;-65
2022/04/22 08:24:43;;;;;;;17.50;12.30;;;17.50;99.90;;;;;;5036509;28;20185;-66
2022/04/22 08:27:12;;;;;;;14.37;12.17;;;17.40;99.90;;;;;;5037005;28;20896;-66
2022/04/22 08:29:42;;;;;;;19.37;12.37;;;17.00;99.90;;;;;;5038676;28;20299;-66
2022/04/22 08:32:11;;;;;;;15.70;12.90;;;17.20;99.90;;;;;;5037223;28;20231;-65
2022/04/22 08:34:39;;;;;;;16.90;13.13;;;17.10;99.90;;;;;;5043951;28;20746;-65
2022/04/22 08:37:08;;;;;;;19.37;12.97;;;17.40;99.90;;;;;;5038483;28;20201;-65
2022/04/22 08:39:36;;;;;;;18.67;13.17;;;17.50;99.90;;;;;;5033767;28;20691;-65
2022/04/22 08:42:05;;;;;;;20.23;13.97;;;17.60;99.90;;;;;;5035676;28;20283;-65
2022/04/22 08:44:55;;;;;;;22.07;13.67;;;17.30;99.90;;;;;;5041437;28;20201;-64
2022/04/22 08:50:13;;;;;;;20.97;14.07;;;17.80;99.90;;;;;;5036257;28;20760;-65
2022/04/22 08:52:43;;;;;;;21.17;14.00;;;17.30;99.90;;;;;;5040487;28;20198;-66
2022/04/22 08:55:13;;;;;;;17.30;13.80;;;17.10;99.90;;;;;;5040915;28;20288;-66
2022/04/22 08:57:43;;;;;;;20.17;14.60;;;17.10;99.90;;;;;;5040696;28;20259;-65
2022/04/22 09:00:16;;;;;;;20.47;14.87;;;16.80;99.90;;;;;;5038155;28;20210;-65
2022/04/22 09:02:45;;;;;;;21.13;15.00;;;16.30;99.90;;;;;;5038261;28;20290;-65
2022/04/22 09:05:13;;;;;;;20.27;14.50;;;16.00;99.90;;;;;;5040159;28;20199;-65
2022/04/22 09:07:43;;;;;;;23.50;15.77;;;16.30;99.90;;;;;;5038299;28;20535;-65
2022/04/22 09:10:12;;;;;;;20.43;15.70;;;16.20;99.90;;;;;;5038595;28;20573;-65
2022/04/22 09:12:51;;;;;;;20.47;15.07;;;16.80;99.90;;;;;;5045372;28;20195;-65
2022/04/22 09:15:22;;;;;;;20.53;15.10;;;16.80;99.90;;;;;;5041208;28;20228;-65
2022/04/22 09:17:57;;;;;;;19.47;14.20;;;16.70;99.90;;;;;;5046625;28;20200;-66
2022/04/22 09:20:29;;;;;;;18.17;13.83;;;17.40;99.90;;;;;;5040507;28;20441;-65
2022/04/22 09:22:58;;;;;;;16.73;12.53;;;18.70;99.90;;;;;;5049156;28;20275;-65
2022/04/22 09:25:28;;;;;;;17.33;13.50;;;18.70;99.90;;;;;;5048477;28;20299;-65
2022/04/22 09:28:08;;;;;;;21.57;13.73;;;17.60;99.90;;;;;;5040473;28;20199;-65
2022/04/22 09:30:41;;;;;;;17.93;13.57;;;16.90;99.90;;;;;;5045216;28;20201;-64
2022/04/22 09:33:10;;;;;;;22.23;13.80;;;16.50;99.90;;;;;;5046943;28;20483;-66
2022/04/22 09:44:02;;;;;;;16.60;12.60;;;19.40;99.90;;;;;;5037616;28;20201;-65
2022/04/22 09:46:32;;;;;;;16.23;12.17;;;19.40;99.90;;;;;;5044038;28;20288;-66
2022/04/22 09:49:01;;;;;;;16.30;12.57;;;19.90;99.90;;;;;;5045245;28;20197;-66
2022/04/22 09:51:31;;;;;;;16.47;12.20;;;20.70;99.90;;;;;;5048319;28;20204;-66
2022/04/22 09:54:01;;;;;;;14.60;12.27;;;21.00;99.90;;;;;;5043640;28;20199;-66
2022/04/22 09:56:31;;;;;;;22.93;13.23;;;20.70;99.90;;;;;;5046043;28;20279;-65
2022/04/22 09:58:59;;;;;;;17.17;13.33;;;20.20;99.90;;;;;;5048489;28;20685;-65
2022/04/22 10:01:27;;;;;;;18.57;13.47;;;19.20;99.90;;;;;;5046892;28;20720;-65
2022/04/22 10:04:19;;;;;;;15.97;13.60;;;18.30;99.90;;;;;;5043968;28;20212;-65
2022/04/22 10:06:48;;;;;;;16.13;13.90;;;19.10;99.90;;;;;;5044010;28;20193;-65
2022/04/22 10:09:18;;;;;;;15.93;13.90;;;19.90;99.90;;;;;;5042844;28;20196;-66
2022/04/22 10:11:48;;;;;;;14.47;12.53;;;19.60;99.90;;;;;;5045234;28;20604;-66
2022/04/22 10:14:20;;;;;;;18.07;12.53;;;19.50;99.90;;;;;;5045466;28;20185;-66
2022/04/22 10:16:50;;;;;;;13.13;11.73;;;19.80;99.90;;;;;;5045212;28;20227;-65
2022/04/22 10:19:21;;;;;;;14.10;12.07;;;20.60;99.90;;;;;;5042194;28;20204;-64
2022/04/22 10:21:50;;;;;;;14.47;12.30;;;21.00;99.90;;;;;;5041450;28;20212;-65
2022/04/22 10:24:21;;;;;;;13.83;11.90;;;20.30;99.90;;;;;;5045389;28;20209;-65
2022/04/22 10:26:50;;;;;;;14.93;12.07;;;19.30;99.90;;;;;;5036496;28;20727;-65
2022/04/22 10:29:20;;;;;;;58.47;14.13;;;18.50;99.90;;;;;;5044421;28;20204;-65
2022/04/22 10:31:49;;;;;;;14.37;12.20;;;17.90;99.90;;;;;;5044015;28;20193;-65
2022/04/22 10:34:18;;;;;;;17.20;12.40;;;17.70;99.90;;;;;;5044531;28;20722;-64
2022/04/22 10:36:56;;;;;;;16.43;12.33;;;17.60;99.90;;;;;;5042079;28;20714;-65
2022/04/22 10:39:33;;;;;;;15.47;12.27;;;17.60;99.90;;;;;;5039048;28;20213;-65
2022/04/22 10:42:02;;;;;;;12.87;10.77;;;17.40;99.90;;;;;;5038179;28;20679;-63
2022/04/22 10:47:38;;;;;;;13.80;9.80;;;17.40;99.90;;;;;;5041989;28;20230;-65
2022/04/22 10:50:25;;;;;;;16.03;10.70;;;17.30;99.90;;;;;;5040964;28;20567;-65
2022/04/22 10:53:03;;;;;;;12.60;10.93;;;17.00;99.90;;;;;;5041588;28;20280;-65
2022/04/22 10:55:36;;;;;;;12.83;9.13;;;16.60;99.90;;;;;;5036987;28;20253;-64
2022/04/22 10:58:26;;;;;;;20.87;9.20;;;16.40;99.90;;;;;;5044432;28;20228;-65
2022/04/22 11:00:57;;;;;;;9.83;8.40;;;16.70;99.90;;;;;;5037582;28;20202;-65
2022/04/22 11:03:27;;;;;;;12.07;8.57;;;16.80;99.90;;;;;;5040994;28;20193;-64
2022/04/22 11:06:00;;;;;;;10.77;8.90;;;17.00;99.90;;;;;;5038528;28;20216;-65
2022/04/22 11:08:32;;;;;;;10.57;8.27;;;17.00;99.90;;;;;;5035287;28;20679;-64
2022/04/22 11:11:15;;;;;;;10.97;8.13;;;16.80;99.90;;;;;;5040984;28;20201;-65
2022/04/22 11:13:50;;;;;;;9.23;8.23;;;16.70;99.90;;;;;;5036994;28;20682;-64
2022/04/22 11:16:30;;;;;;;9.13;8.20;;;16.40;99.90;;;;;;5041371;28;20203;-65
2022/04/22 11:19:36;;;;;;;11.83;8.97;;;16.20;99.90;;;;;;5041567;28;20258;-65
2022/04/22 11:22:07;;;;;;;10.53;8.87;;;16.00;99.90;;;;;;5039787;28;20189;-64
2022/04/22 11:24:37;;;;;;;10.77;9.10;;;15.90;99.90;;;;;;5038261;28;20202;-64
2022/04/22 11:27:10;;;;;;;11.73;9.63;;;15.80;99.90;;;;;;5041114;28;20559;-64
2022/04/22 11:29:40;;;;;;;11.17;9.97;;;15.70;99.90;;;;;;5042963;28;20809;-65
2022/04/22 11:32:18;;;;;;;14.93;11.23;;;15.60;99.90;;;;;;5039891;28;20299;-64
2022/04/22 11:35:16;;;;;;;13.67;10.77;;;15.50;99.90;;;;;;5038833;28;20309;-64
2022/04/22 11:37:45;;;;;;;12.83;10.27;;;15.60;99.90;;;;;;5037394;28;20670;-64
2022/04/22 11:40:23;;;;;;;13.70;10.70;;;15.70;99.90;;;;;;5041046;28;20279;-65
2022/04/22 11:42:54;;;;;;;13.63;11.03;;;15.80;99.90;;;;;;5039087;28;20205;-65
2022/04/22 11:45:23;;;;;;;13.37;11.83;;;15.90;99.90;;;;;;5042342;28;20224;-65
2022/04/22 11:47:52;;;;;;;14.07;12.27;;;16.00;99.90;;;;;;5041991;28;20293;-67
2022/04/22 11:50:22;;;;;;;13.90;12.37;;;16.10;99.90;;;;;;5045841;28;20259;-64
2022/04/22 11:52:56;;;;;;;15.23;13.07;;;16.30;99.90;;;;;;5037150;28;20201;-65
2022/04/22 11:55:27;;;;;;;16.30;13.10;;;16.40;99.90;;;;;;5039431;28;20228;-66
2022/04/22 11:57:56;;;;;;;16.57;13.20;;;16.60;99.90;;;;;;5043905;28;20506;-66
2022/04/22 12:05:58;;;;;;;17.13;13.87;;;16.50;99.90;;;;;;5045332;28;20224;-66
2022/04/22 12:08:26;;;;;;;14.03;12.13;;;16.30;99.90;;;;;;5045571;28;20254;-66
2022/04/22 12:10:56;;;;;;;15.43;11.70;;;16.10;99.90;;;;;;5048115;28;20512;-66
2022/04/22 12:13:27;;;;;;;12.27;10.90;;;16.20;99.90;;;;;;5046109;28;20246;-66
2022/04/22 12:15:56;;;;;;;15.30;11.20;;;16.40;99.90;;;;;;5044037;28;20278;-66
2022/04/22 12:18:32;;;;;;;16.57;11.53;;;16.50;99.90;;;;;;5044594;28;20207;-66
2022/04/22 12:21:01;;;;;;;12.17;10.63;;;16.60;99.90;;;;;;5041024;28;20188;-66
2022/04/22 12:23:38;;;;;;;10.40;9.30;;;16.60;99.90;;;;;;5036485;28;20697;-66
2022/04/22 12:26:15;;;;;;;16.67;9.87;;;16.80;99.90;;;;;;5038570;28;20266;-65
2022/04/22 12:29:03;;;;;;;16.13;10.67;;;17.10;99.90;;;;;;5040988;28;20350;-66
2022/04/22 12:31:33;;;;;;;12.97;9.13;;;17.20;99.90;;;;;;5040165;28;20239;-65
2022/04/22 12:34:03;;;;;;;11.70;10.27;;;17.20;99.90;;;;;;5041112;28;20706;-66
2022/04/22 12:36:36;;;;;;;11.37;10.00;;;17.10;99.90;;;;;;5041238;28;20523;-65
2022/04/22 12:39:05;;;;;;;15.77;10.40;;;16.90;99.90;;;;;;5045529;28;20288;-66
2022/04/22 12:41:45;;;;;;;11.97;10.43;;;16.80;99.90;;;;;;5039626;28;20201;-66
2022/04/22 12:44:15;;;;;;;13.70;10.07;;;16.70;99.90;;;;;;5041938;28;20342;-65
2022/04/22 12:52:28;;;;;;;11.57;10.37;;;16.80;99.90;;;;;;5041422;28;20228;-66
2022/04/22 12:55:04;;;;;;;11.67;10.00;;;16.60;99.90;;;;;;5037942;28;20564;-66
2022/04/22 12:57:35;;;;;;;11.93;10.37;;;16.60;99.90;;;;;;5038294;28;20219;-66
2022/04/22 13:00:15;;;;;;;16.87;10.70;;;16.70;99.90;;;;;;5038751;28;20352;-65
2022/04/22 13:03:04;;;;;;;12.40;10.30;;;16.70;99.90;;;;;;5036297;28;20204;-67
2022/04/22 13:05:33;;;;;;;11.33;10.20;;;17.00;99.90;;;;;;5039406;28;20230;-66
2022/04/22 13:08:10;;;;;;;11.40;9.50;;;17.00;99.90;;;;;;5037654;28;20192;-67
2022/04/22 13:10:40;;;;;;;12.10;10.37;;;17.20;99.90;;;;;;5037546;28;20185;-66
2022/04/22 13:13:14;;;;;;;13.73;9.50;;;17.20;99.90;;;;;;5038251;28;20189;-67
2022/04/22 13:15:43;;;;;;;12.03;9.30;;;17.30;99.90;;;;;;5038229;28;20294;-66
2022/04/22 13:18:13;;;;;;;13.17;9.97;;;17.60;99.90;;;;;;5036677;28;20209;-66
2022/04/22 13:20:44;;;;;;;12.73;10.10;;;17.50;99.90;;;;;;5038520;28;20251;-66
2022/04/22 13:23:13;;;;;;;10.63;9.50;;;17.70;99.90;;;;;;5035528;28;20328;-67
2022/04/22 13:25:41;;;;;;;16.87;9.53;;;17.70;99.90;;;;;;5038129;28;20247;-66
2022/04/22 13:28:10;;;;;;;13.60;10.00;;;17.80;99.90;;;;;;5039237;28;20292;-66
2022/04/22 13:30:41;;;;;;;13.17;9.60;;;18.10;99.90;;;;;;5038862;28;20262;-67
2022/04/22 13:33:09;;;;;;;10.67;8.70;;;18.20;99.90;;;;;;5037504;28;20250;-67
2022/04/22 13:35:38;;;;;;;12.77;9.07;;;17.90;99.90;;;;;;5035550;28;20199;-66
2022/04/22 13:38:07;;;;;;;12.17;9.03;;;17.70;99.90;;;;;;5038495;28;20262;-67
2022/04/22 13:40:35;;;;;;;9.73;8.77;;;17.60;99.90;;;;;;5040678;28;20197;-66
2022/04/22 13:43:07;;;;;;;12.43;9.50;;;17.40;99.90;;;;;;5040803;28;20201;-67
2022/04/22 13:54:05;;;;;;;13.17;9.97;;;17.00;99.90;;;;;;5037417;28;20211;-66
2022/04/22 13:56:34;;;;;;;11.53;10.30;;;17.00;99.90;;;;;;5045524;28;20264;-67
2022/04/22 13:59:02;;;;;;;10.20;9.10;;;17.00;99.90;;;;;;5044441;28;20196;-67
2022/04/22 14:01:30;;;;;;;10.43;9.33;;;17.10;99.90;;;;;;5045866;28;20268;-67
2022/04/22 14:04:00;;;;;;;9.37;8.47;;;17.60;99.90;;;;;;5045221;28;20232;-67